sensor_id;sensor_type;location;lat;lon;timestamp;pressure;altitude;pressure_sealevel;temperature
65290;BMP180;51893;59.754;10.110;2023-05-10T00:00:46;101668.20;;;9.90
65290;BMP180;51893;59.754;10.110;2023-05-10T00:03:15;101662.80;;;9.90
65290;BMP180;51893;59.754;10.110;2023-05-10T00:05:43;101665.80;;;9.90
65290;BMP180;51893;59.754;10.110;2023-05-10T00:08:11;101669.20;;;9.80
65290;BMP180;51893;59.754;10.110;2023-05-10T00:10:39;101660.20;;;9.80
65290;BMP180;51893;59.754;10.110;2023-05-10T00:13:08;101661.60;;;9.80
65290;BMP180;51893;59.754;10.110;2023-05-10T00:15:37;101660.60;;;9.80
65290;BMP180;51893;59.754;10.110;2023-05-10T00:18:06;101658.40;;;9.80
65290;BMP180;51893;59.754;10.110;2023-05-10T00:20:34;101659.60;;;9.80
65290;BMP180;51893;59.754;10.110;2023-05-10T00:23:02;101653.40;;;9.80
65290;BMP180;51893;59.754;10.110;2023-05-10T00:25:30;101651.60;;;9.88
65290;BMP180;51893;59.754;10.110;2023-05-10T00:27:58;101653.00;;;9.90
65290;BMP180;51893;59.754;10.110;2023-05-10T00:30:29;101653.80;;;9.90
65290;BMP180;51893;59.754;10.110;2023-05-10T00:32:58;101648.60;;;9.90
65290;BMP180;51893;59.754;10.110;2023-05-10T00:35:26;101647.00;;;9.96
65290;BMP180;51893;59.754;10.110;2023-05-10T00:37:54;101640.60;;;9.92
65290;BMP180;51893;59.754;10.110;2023-05-10T00:40:22;101640.20;;;9.92
65290;BMP180;51893;59.754;10.110;2023-05-10T00:42:50;101636.80;;;9.90
65290;BMP180;51893;59.754;10.110;2023-05-10T00:45:18;101635.80;;;9.80
65290;BMP180;51893;59.754;10.110;2023-05-10T00:47:47;101633.60;;;9.80
65290;BMP180;51893;59.754;10.110;2023-05-10T00:50:15;101634.60;;;9.70
65290;BMP180;51893;59.754;10.110;2023-05-10T00:52:44;101632.40;;;9.68
65290;BMP180;51893;59.754;10.110;2023-05-10T00:55:12;101629.20;;;9.60
65290;BMP180;51893;59.754;10.110;2023-05-10T00:57:41;101622.00;;;9.60
65290;BMP180;51893;59.754;10.110;2023-05-10T01:00:10;101624.60;;;9.60
65290;BMP180;51893;59.754;10.110;2023-05-10T01:02:40;101624.20;;;9.60
65290;BMP180;51893;59.754;10.110;2023-05-10T01:05:09;101623.40;;;9.60
65290;BMP180;51893;59.754;10.110;2023-05-10T01:07:39;101621.80;;;9.60
65290;BMP180;51893;59.754;10.110;2023-05-10T01:10:10;101619.40;;;9.60
65290;BMP180;51893;59.754;10.110;2023-05-10T01:12:43;101621.60;;;9.50
65290;BMP180;51893;59.754;10.110;2023-05-10T01:15:15;101616.40;;;9.44
65290;BMP180;51893;59.754;10.110;2023-05-10T01:17:46;101612.80;;;9.48
65290;BMP180;51893;59.754;10.110;2023-05-10T01:20:17;101617.20;;;9.50
65290;BMP180;51893;59.754;10.110;2023-05-10T01:29:19;101614.60;;;9.30
65290;BMP180;51893;59.754;10.110;2023-05-10T01:32:31;101607.20;;;9.40
65290;BMP180;51893;59.754;10.110;2023-05-10T01:35:18;101602.80;;;9.40
65290;BMP180;51893;59.754;10.110;2023-05-10T01:38:24;101610.60;;;9.40
65290;BMP180;51893;59.754;10.110;2023-05-10T01:41:15;101606.80;;;9.40
65290;BMP180;51893;59.754;10.110;2023-05-10T01:44:11;101603.20;;;9.40
65290;BMP180;51893;59.754;10.110;2023-05-10T01:46:43;101599.40;;;9.40
65290;BMP180;51893;59.754;10.110;2023-05-10T01:49:45;101598.00;;;9.30
65290;BMP180;51893;59.754;10.110;2023-05-10T01:52:19;101596.00;;;9.26
65290;BMP180;51893;59.754;10.110;2023-05-10T01:55:04;101589.60;;;9.30
65290;BMP180;51893;59.754;10.110;2023-05-10T01:57:35;101588.00;;;9.30
65290;BMP180;51893;59.754;10.110;2023-05-10T02:00:09;101590.80;;;9.30
65290;BMP180;51893;59.754;10.110;2023-05-10T02:02:40;101584.20;;;9.20
65290;BMP180;51893;59.754;10.110;2023-05-10T02:05:13;101580.60;;;9.20
65290;BMP180;51893;59.754;10.110;2023-05-10T02:07:44;101583.40;;;9.24
65290;BMP180;51893;59.754;10.110;2023-05-10T02:10:14;101581.20;;;9.30
65290;BMP180;51893;59.754;10.110;2023-05-10T02:12:47;101587.60;;;9.38
65290;BMP180;51893;59.754;10.110;2023-05-10T02:15:21;101583.00;;;9.34
65290;BMP180;51893;59.754;10.110;2023-05-10T02:17:52;101584.40;;;9.40
65290;BMP180;51893;59.754;10.110;2023-05-10T02:20:24;101584.60;;;9.40
65290;BMP180;51893;59.754;10.110;2023-05-10T02:22:55;101586.40;;;9.40
65290;BMP180;51893;59.754;10.110;2023-05-10T02:25:25;101584.20;;;9.40
65290;BMP180;51893;59.754;10.110;2023-05-10T02:27:56;101585.60;;;9.40
65290;BMP180;51893;59.754;10.110;2023-05-10T02:30:26;101586.60;;;9.40
65290;BMP180;51893;59.754;10.110;2023-05-10T02:32:57;101591.60;;;9.36
65290;BMP180;51893;59.754;10.110;2023-05-10T02:35:28;101590.60;;;9.30
65290;BMP180;51893;59.754;10.110;2023-05-10T02:38:01;101587.60;;;9.30
65290;BMP180;51893;59.754;10.110;2023-05-10T02:40:30;101585.40;;;9.20
65290;BMP180;51893;59.754;10.110;2023-05-10T02:43:02;101578.80;;;9.10
65290;BMP180;51893;59.754;10.110;2023-05-10T02:45:32;101582.00;;;9.10
65290;BMP180;51893;59.754;10.110;2023-05-10T02:48:04;101580.40;;;9.12
65290;BMP180;51893;59.754;10.110;2023-05-10T02:50:33;101577.00;;;9.18
65290;BMP180;51893;59.754;10.110;2023-05-10T02:53:22;101575.60;;;9.20
65290;BMP180;51893;59.754;10.110;2023-05-10T02:55:57;101577.20;;;9.28
65290;BMP180;51893;59.754;10.110;2023-05-10T02:58:28;101581.40;;;9.30
65290;BMP180;51893;59.754;10.110;2023-05-10T03:00:56;101584.60;;;9.30
65290;BMP180;51893;59.754;10.110;2023-05-10T03:03:24;101581.80;;;9.30
65290;BMP180;51893;59.754;10.110;2023-05-10T03:05:53;101587.20;;;9.30
65290;BMP180;51893;59.754;10.110;2023-05-10T03:08:24;101582.20;;;9.30
65290;BMP180;51893;59.754;10.110;2023-05-10T03:11:28;101579.80;;;9.30
65290;BMP180;51893;59.754;10.110;2023-05-10T03:20:35;101581.80;;;9.30
65290;BMP180;51893;59.754;10.110;2023-05-10T03:25:48;101588.60;;;9.30
65290;BMP180;51893;59.754;10.110;2023-05-10T03:28:18;101583.20;;;9.28
65290;BMP180;51893;59.754;10.110;2023-05-10T03:30:49;101580.00;;;9.20
65290;BMP180;51893;59.754;10.110;2023-05-10T03:33:20;101581.00;;;9.20
65290;BMP180;51893;59.754;10.110;2023-05-10T03:35:48;101580.80;;;9.14
65290;BMP180;51893;59.754;10.110;2023-05-10T03:38:16;101585.80;;;9.10
65290;BMP180;51893;59.754;10.110;2023-05-10T03:40:44;101578.00;;;9.00
65290;BMP180;51893;59.754;10.110;2023-05-10T03:43:12;101576.00;;;9.00
65290;BMP180;51893;59.754;10.110;2023-05-10T03:45:41;101573.60;;;8.98
65290;BMP180;51893;59.754;10.110;2023-05-10T03:48:08;101574.00;;;8.98
65290;BMP180;51893;59.754;10.110;2023-05-10T03:50:36;101576.00;;;8.90
65290;BMP180;51893;59.754;10.110;2023-05-10T03:53:05;101574.80;;;8.80
65290;BMP180;51893;59.754;10.110;2023-05-10T03:55:33;101574.60;;;8.80
65290;BMP180;51893;59.754;10.110;2023-05-10T03:58:03;101578.80;;;8.80
65290;BMP180;51893;59.754;10.110;2023-05-10T04:00:31;101577.00;;;8.80
65290;BMP180;51893;59.754;10.110;2023-05-10T04:03:00;101578.20;;;8.80
65290;BMP180;51893;59.754;10.110;2023-05-10T04:05:29;101571.60;;;8.70
65290;BMP180;51893;59.754;10.110;2023-05-10T04:07:57;101567.40;;;8.60
65290;BMP180;51893;59.754;10.110;2023-05-10T04:10:26;101566.60;;;8.60
65290;BMP180;51893;59.754;10.110;2023-05-10T04:12:57;101565.00;;;8.58
65290;BMP180;51893;59.754;10.110;2023-05-10T04:15:27;101568.20;;;8.60
65290;BMP180;51893;59.754;10.110;2023-05-10T04:17:55;101566.60;;;8.60
65290;BMP180;51893;59.754;10.110;2023-05-10T04:20:23;101565.60;;;8.70
65290;BMP180;51893;59.754;10.110;2023-05-10T04:22:53;101563.60;;;8.72
65290;BMP180;51893;59.754;10.110;2023-05-10T04:25:22;101567.80;;;8.80
65290;BMP180;51893;59.754;10.110;2023-05-10T04:27:50;101565.00;;;8.80
65290;BMP180;51893;59.754;10.110;2023-05-10T04:30:18;101567.40;;;8.84
65290;BMP180;51893;59.754;10.110;2023-05-10T04:32:46;101562.80;;;8.90
65290;BMP180;51893;59.754;10.110;2023-05-10T04:35:14;101559.60;;;8.90
65290;BMP180;51893;59.754;10.110;2023-05-10T04:37:42;101557.80;;;8.96
65290;BMP180;51893;59.754;10.110;2023-05-10T04:40:11;101553.00;;;9.00
65290;BMP180;51893;59.754;10.110;2023-05-10T04:42:40;101556.20;;;9.00
65290;BMP180;51893;59.754;10.110;2023-05-10T04:45:09;101555.60;;;9.10
65290;BMP180;51893;59.754;10.110;2023-05-10T04:47:38;101556.00;;;9.20
65290;BMP180;51893;59.754;10.110;2023-05-10T04:50:07;101560.40;;;9.30
65290;BMP180;51893;59.754;10.110;2023-05-10T04:52:35;101558.40;;;9.38
65290;BMP180;51893;59.754;10.110;2023-05-10T04:55:04;101557.40;;;9.40
65290;BMP180;51893;59.754;10.110;2023-05-10T04:57:36;101556.40;;;9.50
65290;BMP180;51893;59.754;10.110;2023-05-10T05:00:05;101559.60;;;9.58
65290;BMP180;51893;59.754;10.110;2023-05-10T05:02:33;101564.40;;;9.60
65290;BMP180;51893;59.754;10.110;2023-05-10T05:05:04;101562.00;;;9.60
65290;BMP180;51893;59.754;10.110;2023-05-10T05:07:32;101559.40;;;9.64
65290;BMP180;51893;59.754;10.110;2023-05-10T05:10:00;101557.80;;;9.70
65290;BMP180;51893;59.754;10.110;2023-05-10T05:12:28;101556.80;;;9.80
65290;BMP180;51893;59.754;10.110;2023-05-10T05:14:58;101559.00;;;9.80
65290;BMP180;51893;59.754;10.110;2023-05-10T05:17:26;101558.20;;;9.90
65290;BMP180;51893;59.754;10.110;2023-05-10T05:19:54;101558.20;;;10.00
65290;BMP180;51893;59.754;10.110;2023-05-10T05:22:22;101553.40;;;10.10
65290;BMP180;51893;59.754;10.110;2023-05-10T05:24:57;101559.00;;;10.16
65290;BMP180;51893;59.754;10.110;2023-05-10T05:27:31;101559.40;;;10.20
65290;BMP180;51893;59.754;10.110;2023-05-10T05:29:59;101561.80;;;10.30
65290;BMP180;51893;59.754;10.110;2023-05-10T05:32:27;101561.60;;;10.30
65290;BMP180;51893;59.754;10.110;2023-05-10T05:34:55;101572.00;;;10.40
65290;BMP180;51893;59.754;10.110;2023-05-10T05:37:23;101574.00;;;10.50
65290;BMP180;51893;59.754;10.110;2023-05-10T05:39:52;101574.80;;;10.50
65290;BMP180;51893;59.754;10.110;2023-05-10T05:42:20;101577.00;;;10.50
65290;BMP180;51893;59.754;10.110;2023-05-10T05:44:48;101580.00;;;10.50
65290;BMP180;51893;59.754;10.110;2023-05-10T05:47:16;101582.40;;;10.60
65290;BMP180;51893;59.754;10.110;2023-05-10T05:49:45;101582.60;;;10.60
65290;BMP180;51893;59.754;10.110;2023-05-10T05:52:14;101584.00;;;10.68
65290;BMP180;51893;59.754;10.110;2023-05-10T05:54:42;101588.20;;;10.70
65290;BMP180;51893;59.754;10.110;2023-05-10T05:57:10;101592.60;;;10.80
65290;BMP180;51893;59.754;10.110;2023-05-10T05:59:39;101595.80;;;10.80
65290;BMP180;51893;59.754;10.110;2023-05-10T06:02:11;101598.40;;;10.90
65290;BMP180;51893;59.754;10.110;2023-05-10T06:04:39;101598.80;;;10.90
65290;BMP180;51893;59.754;10.110;2023-05-10T06:07:11;101601.20;;;11.00
65290;BMP180;51893;59.754;10.110;2023-05-10T06:09:39;101601.00;;;11.08
65290;BMP180;51893;59.754;10.110;2023-05-10T06:12:07;101612.60;;;11.10
65290;BMP180;51893;59.754;10.110;2023-05-10T06:14:35;101614.60;;;11.20
65290;BMP180;51893;59.754;10.110;2023-05-10T06:17:03;101618.00;;;11.20
65290;BMP180;51893;59.754;10.110;2023-05-10T06:19:32;101620.00;;;11.30
65290;BMP180;51893;59.754;10.110;2023-05-10T06:22:00;101623.80;;;11.40
65290;BMP180;51893;59.754;10.110;2023-05-10T06:24:28;101631.40;;;11.40
65290;BMP180;51893;59.754;10.110;2023-05-10T06:26:56;101633.60;;;11.50
65290;BMP180;51893;59.754;10.110;2023-05-10T06:29:29;101635.80;;;11.58
65290;BMP180;51893;59.754;10.110;2023-05-10T06:31:57;101640.60;;;11.60
65290;BMP180;51893;59.754;10.110;2023-05-10T06:34:25;101642.60;;;11.70
65290;BMP180;51893;59.754;10.110;2023-05-10T06:36:54;101645.40;;;11.70
65290;BMP180;51893;59.754;10.110;2023-05-10T06:39:22;101651.80;;;11.80
65290;BMP180;51893;59.754;10.110;2023-05-10T06:41:50;101651.60;;;11.80
65290;BMP180;51893;59.754;10.110;2023-05-10T06:44:21;101651.00;;;11.90
65290;BMP180;51893;59.754;10.110;2023-05-10T06:46:49;101652.20;;;11.90
65290;BMP180;51893;59.754;10.110;2023-05-10T06:49:17;101651.60;;;12.00
65290;BMP180;51893;59.754;10.110;2023-05-10T06:51:45;101655.60;;;12.00
65290;BMP180;51893;59.754;10.110;2023-05-10T06:54:16;101656.60;;;12.10
65290;BMP180;51893;59.754;10.110;2023-05-10T06:56:44;101668.20;;;12.10
65290;BMP180;51893;59.754;10.110;2023-05-10T06:59:12;101667.80;;;12.10
65290;BMP180;51893;59.754;10.110;2023-05-10T07:01:44;101665.40;;;12.20
65290;BMP180;51893;59.754;10.110;2023-05-10T07:04:12;101665.40;;;12.24
65290;BMP180;51893;59.754;10.110;2023-05-10T07:06:40;101666.00;;;12.30
65290;BMP180;51893;59.754;10.110;2023-05-10T07:09:08;101665.80;;;12.40
65290;BMP180;51893;59.754;10.110;2023-05-10T07:11:37;101665.60;;;12.40
65290;BMP180;51893;59.754;10.110;2023-05-10T07:14:05;101668.20;;;12.50
65290;BMP180;51893;59.754;10.110;2023-05-10T07:16:33;101672.60;;;12.50
65290;BMP180;51893;59.754;10.110;2023-05-10T07:19:01;101673.80;;;12.50
65290;BMP180;51893;59.754;10.110;2023-05-10T07:21:30;101671.40;;;12.58
65290;BMP180;51893;59.754;10.110;2023-05-10T07:23:59;101675.40;;;12.62
65290;BMP180;51893;59.754;10.110;2023-05-10T07:26:28;101675.00;;;12.70
65290;BMP180;51893;59.754;10.110;2023-05-10T07:28:59;101681.20;;;12.80
65290;BMP180;51893;59.754;10.110;2023-05-10T07:31:27;101678.60;;;12.90
65290;BMP180;51893;59.754;10.110;2023-05-10T07:33:57;101678.40;;;13.00
65290;BMP180;51893;59.754;10.110;2023-05-10T07:36:25;101677.40;;;13.10
65290;BMP180;51893;59.754;10.110;2023-05-10T07:38:54;101679.20;;;13.20
65290;BMP180;51893;59.754;10.110;2023-05-10T07:41:22;101678.00;;;13.30
65290;BMP180;51893;59.754;10.110;2023-05-10T07:43:50;101684.40;;;13.40
65290;BMP180;51893;59.754;10.110;2023-05-10T07:46:19;101682.80;;;13.50
65290;BMP180;51893;59.754;10.110;2023-05-10T07:48:48;101687.60;;;13.60
65290;BMP180;51893;59.754;10.110;2023-05-10T07:51:22;101688.40;;;13.70
65290;BMP180;51893;59.754;10.110;2023-05-10T07:53:50;101688.80;;;13.80
65290;BMP180;51893;59.754;10.110;2023-05-10T07:56:29;101697.00;;;13.80
65290;BMP180;51893;59.754;10.110;2023-05-10T07:59:03;101696.20;;;13.90
65290;BMP180;51893;59.754;10.110;2023-05-10T08:01:36;101697.40;;;13.94
65290;BMP180;51893;59.754;10.110;2023-05-10T08:04:04;101694.80;;;14.00
65290;BMP180;51893;59.754;10.110;2023-05-10T08:06:33;101693.60;;;14.10
65290;BMP180;51893;59.754;10.110;2023-05-10T08:09:04;101694.80;;;14.10
65290;BMP180;51893;59.754;10.110;2023-05-10T08:11:32;101697.40;;;14.20
65290;BMP180;51893;59.754;10.110;2023-05-10T08:14:01;101697.20;;;14.30
65290;BMP180;51893;59.754;10.110;2023-05-10T08:16:29;101700.60;;;14.32
65290;BMP180;51893;59.754;10.110;2023-05-10T08:18:58;101702.80;;;14.40
65290;BMP180;51893;59.754;10.110;2023-05-10T08:21:28;101701.80;;;14.40
65290;BMP180;51893;59.754;10.110;2023-05-10T08:23:56;101695.40;;;14.50
65290;BMP180;51893;59.754;10.110;2023-05-10T08:26:26;101698.40;;;14.60
65290;BMP180;51893;59.754;10.110;2023-05-10T08:28:54;101694.80;;;14.62
65290;BMP180;51893;59.754;10.110;2023-05-10T08:31:24;101702.40;;;14.70
65290;BMP180;51893;59.754;10.110;2023-05-10T08:33:52;101696.60;;;14.70
65290;BMP180;51893;59.754;10.110;2023-05-10T08:36:22;101701.00;;;14.78
65290;BMP180;51893;59.754;10.110;2023-05-10T08:38:53;101698.80;;;14.80
65290;BMP180;51893;59.754;10.110;2023-05-10T08:41:23;101695.00;;;14.90
65290;BMP180;51893;59.754;10.110;2023-05-10T08:43:54;101702.40;;;15.00
65290;BMP180;51893;59.754;10.110;2023-05-10T08:46:26;101703.60;;;15.00
65290;BMP180;51893;59.754;10.110;2023-05-10T08:49:02;101700.40;;;15.10
65290;BMP180;51893;59.754;10.110;2023-05-10T08:51:36;101700.00;;;15.20
65290;BMP180;51893;59.754;10.110;2023-05-10T08:54:10;101695.80;;;15.30
65290;BMP180;51893;59.754;10.110;2023-05-10T08:56:38;101693.00;;;15.40
65290;BMP180;51893;59.754;10.110;2023-05-10T08:59:07;101698.20;;;15.60
65290;BMP180;51893;59.754;10.110;2023-05-10T09:01:36;101697.00;;;15.70
65290;BMP180;51893;59.754;10.110;2023-05-10T09:04:04;101697.40;;;15.90
65290;BMP180;51893;59.754;10.110;2023-05-10T09:06:33;101696.80;;;16.00
65290;BMP180;51893;59.754;10.110;2023-05-10T09:09:02;101694.80;;;16.10
65290;BMP180;51893;59.754;10.110;2023-05-10T09:11:32;101694.20;;;16.20
65290;BMP180;51893;59.754;10.110;2023-05-10T09:14:01;101698.60;;;16.20
65290;BMP180;51893;59.754;10.110;2023-05-10T09:16:34;101697.20;;;16.20
65290;BMP180;51893;59.754;10.110;2023-05-10T09:19:02;101697.80;;;16.28
65290;BMP180;51893;59.754;10.110;2023-05-10T09:21:31;101698.20;;;16.34
65290;BMP180;51893;59.754;10.110;2023-05-10T09:24:03;101691.40;;;16.46
65290;BMP180;51893;59.754;10.110;2023-05-10T09:26:46;101685.00;;;16.60
65290;BMP180;51893;59.754;10.110;2023-05-10T09:29:18;101693.80;;;16.70
65290;BMP180;51893;59.754;10.110;2023-05-10T09:31:51;101689.20;;;16.90
65290;BMP180;51893;59.754;10.110;2023-05-10T09:34:30;101690.20;;;17.00
65290;BMP180;51893;59.754;10.110;2023-05-10T09:37:01;101694.40;;;17.00
65290;BMP180;51893;59.754;10.110;2023-05-10T09:39:36;101694.00;;;17.20
65290;BMP180;51893;59.754;10.110;2023-05-10T09:42:09;101697.60;;;17.40
65290;BMP180;51893;59.754;10.110;2023-05-10T09:44:38;101689.20;;;17.60
65290;BMP180;51893;59.754;10.110;2023-05-10T09:47:08;101696.60;;;17.70
65290;BMP180;51893;59.754;10.110;2023-05-10T09:49:38;101691.20;;;17.80
65290;BMP180;51893;59.754;10.110;2023-05-10T09:52:07;101697.00;;;17.80
65290;BMP180;51893;59.754;10.110;2023-05-10T09:54:52;101690.20;;;17.70
65290;BMP180;51893;59.754;10.110;2023-05-10T09:57:23;101690.00;;;17.70
65290;BMP180;51893;59.754;10.110;2023-05-10T09:59:51;101686.20;;;17.80
65290;BMP180;51893;59.754;10.110;2023-05-10T10:02:28;101692.20;;;17.90
65290;BMP180;51893;59.754;10.110;2023-05-10T10:05:00;101688.00;;;18.00
65290;BMP180;51893;59.754;10.110;2023-05-10T10:07:29;101691.20;;;18.00
65290;BMP180;51893;59.754;10.110;2023-05-10T10:09:58;101691.60;;;18.00
65290;BMP180;51893;59.754;10.110;2023-05-10T10:12:28;101689.40;;;18.10
65290;BMP180;51893;59.754;10.110;2023-05-10T10:14:56;101689.00;;;18.00
65290;BMP180;51893;59.754;10.110;2023-05-10T10:17:27;101687.20;;;18.00
65290;BMP180;51893;59.754;10.110;2023-05-10T10:19:57;101687.00;;;18.04
65290;BMP180;51893;59.754;10.110;2023-05-10T10:22:26;101686.00;;;18.10
65290;BMP180;51893;59.754;10.110;2023-05-10T10:24:54;101680.60;;;18.20
65290;BMP180;51893;59.754;10.110;2023-05-10T10:27:49;101682.60;;;18.22
65290;BMP180;51893;59.754;10.110;2023-05-10T10:30:42;101685.00;;;18.30
65290;BMP180;51893;59.754;10.110;2023-05-10T10:33:39;101690.20;;;18.30
65290;BMP180;51893;59.754;10.110;2023-05-10T10:36:08;101684.60;;;18.40
65290;BMP180;51893;59.754;10.110;2023-05-10T10:41:39;101682.40;;;18.50
65290;BMP180;51893;59.754;10.110;2023-05-10T10:50:04;101674.60;;;18.70
65290;BMP180;51893;59.754;10.110;2023-05-10T10:52:38;101677.80;;;18.70
65290;BMP180;51893;59.754;10.110;2023-05-10T10:57:58;101679.80;;;19.00
65290;BMP180;51893;59.754;10.110;2023-05-10T11:00:37;101681.20;;;19.00
65290;BMP180;51893;59.754;10.110;2023-05-10T11:03:14;101680.20;;;19.10
65290;BMP180;51893;59.754;10.110;2023-05-10T11:05:48;101681.20;;;19.10
65290;BMP180;51893;59.754;10.110;2023-05-10T11:08:32;101684.00;;;19.10
65290;BMP180;51893;59.754;10.110;2023-05-10T11:11:06;101676.80;;;19.20
65290;BMP180;51893;59.754;10.110;2023-05-10T11:13:43;101683.20;;;19.14
65290;BMP180;51893;59.754;10.110;2023-05-10T11:19:09;101667.40;;;19.20
65290;BMP180;51893;59.754;10.110;2023-05-10T11:21:50;101673.40;;;19.30
65290;BMP180;51893;59.754;10.110;2023-05-10T11:24:21;101668.40;;;19.42
65290;BMP180;51893;59.754;10.110;2023-05-10T11:26:50;101668.60;;;19.50
65290;BMP180;51893;59.754;10.110;2023-05-10T11:29:19;101670.60;;;19.70
65290;BMP180;51893;59.754;10.110;2023-05-10T11:31:49;101665.40;;;19.80
65290;BMP180;51893;59.754;10.110;2023-05-10T11:34:29;101668.80;;;19.90
65290;BMP180;51893;59.754;10.110;2023-05-10T11:36:59;101662.80;;;20.00
65290;BMP180;51893;59.754;10.110;2023-05-10T11:39:31;101662.40;;;20.06
65290;BMP180;51893;59.754;10.110;2023-05-10T11:42:01;101664.60;;;20.10
65290;BMP180;51893;59.754;10.110;2023-05-10T11:44:32;101661.80;;;20.14
65290;BMP180;51893;59.754;10.110;2023-05-10T11:47:01;101657.00;;;20.20
65290;BMP180;51893;59.754;10.110;2023-05-10T11:49:32;101653.60;;;20.12
65290;BMP180;51893;59.754;10.110;2023-05-10T11:52:07;101661.20;;;20.20
65290;BMP180;51893;59.754;10.110;2023-05-10T11:54:36;101656.60;;;20.38
65290;BMP180;51893;59.754;10.110;2023-05-10T11:57:05;101654.20;;;20.40
65290;BMP180;51893;59.754;10.110;2023-05-10T11:59:34;101651.40;;;20.30
65290;BMP180;51893;59.754;10.110;2023-05-10T12:02:04;101649.60;;;20.30
65290;BMP180;51893;59.754;10.110;2023-05-10T12:04:32;101645.20;;;20.34
65290;BMP180;51893;59.754;10.110;2023-05-10T12:07:01;101641.40;;;20.40
65290;BMP180;51893;59.754;10.110;2023-05-10T12:09:29;101646.60;;;20.40
65290;BMP180;51893;59.754;10.110;2023-05-10T12:12:20;101639.80;;;20.40
65290;BMP180;51893;59.754;10.110;2023-05-10T12:14:50;101640.20;;;20.50
65290;BMP180;51893;59.754;10.110;2023-05-10T12:17:18;101644.20;;;20.50
65290;BMP180;51893;59.754;10.110;2023-05-10T12:19:47;101646.80;;;20.50
65290;BMP180;51893;59.754;10.110;2023-05-10T12:22:20;101646.00;;;20.60
65290;BMP180;51893;59.754;10.110;2023-05-10T12:24:50;101647.00;;;20.60
65290;BMP180;51893;59.754;10.110;2023-05-10T12:27:18;101644.60;;;20.70
65290;BMP180;51893;59.754;10.110;2023-05-10T12:29:48;101650.00;;;20.70
65290;BMP180;51893;59.754;10.110;2023-05-10T12:32:16;101648.80;;;20.80
65290;BMP180;51893;59.754;10.110;2023-05-10T12:34:46;101650.80;;;20.80
65290;BMP180;51893;59.754;10.110;2023-05-10T12:37:17;101662.20;;;20.80
65290;BMP180;51893;59.754;10.110;2023-05-10T12:39:46;101654.80;;;20.88
65290;BMP180;51893;59.754;10.110;2023-05-10T12:42:18;101664.40;;;20.90
65290;BMP180;51893;59.754;10.110;2023-05-10T12:44:47;101650.80;;;20.90
65290;BMP180;51893;59.754;10.110;2023-05-10T12:47:14;101656.80;;;20.92
65290;BMP180;51893;59.754;10.110;2023-05-10T12:49:42;101653.80;;;21.00
65290;BMP180;51893;59.754;10.110;2023-05-10T12:52:10;101658.00;;;21.00
65290;BMP180;51893;59.754;10.110;2023-05-10T12:54:39;101647.20;;;21.00
65290;BMP180;51893;59.754;10.110;2023-05-10T12:57:07;101647.40;;;21.10
65290;BMP180;51893;59.754;10.110;2023-05-10T12:59:36;101650.80;;;21.20
65290;BMP180;51893;59.754;10.110;2023-05-10T13:02:06;101644.60;;;21.20
65290;BMP180;51893;59.754;10.110;2023-05-10T13:04:34;101649.20;;;21.28
65290;BMP180;51893;59.754;10.110;2023-05-10T13:07:07;101650.80;;;21.30
65290;BMP180;51893;59.754;10.110;2023-05-10T13:09:35;101656.20;;;21.30
65290;BMP180;51893;59.754;10.110;2023-05-10T13:12:04;101651.80;;;21.20
65290;BMP180;51893;59.754;10.110;2023-05-10T13:14:36;101656.40;;;21.10
65290;BMP180;51893;59.754;10.110;2023-05-10T13:17:05;101663.40;;;21.10
65290;BMP180;51893;59.754;10.110;2023-05-10T13:19:33;101654.80;;;21.00
65290;BMP180;51893;59.754;10.110;2023-05-10T13:22:01;101658.00;;;21.10
65290;BMP180;51893;59.754;10.110;2023-05-10T13:24:30;101668.60;;;21.10
65290;BMP180;51893;59.754;10.110;2023-05-10T13:27:01;101658.40;;;21.10
65290;BMP180;51893;59.754;10.110;2023-05-10T13:29:29;101653.80;;;21.10
65290;BMP180;51893;59.754;10.110;2023-05-10T13:31:58;101648.00;;;21.10
65290;BMP180;51893;59.754;10.110;2023-05-10T13:34:26;101657.40;;;21.00
65290;BMP180;51893;59.754;10.110;2023-05-10T13:36:54;101651.40;;;21.00
65290;BMP180;51893;59.754;10.110;2023-05-10T13:39:24;101651.40;;;21.00
65290;BMP180;51893;59.754;10.110;2023-05-10T13:41:52;101651.40;;;21.00
65290;BMP180;51893;59.754;10.110;2023-05-10T13:44:22;101650.80;;;21.08
65290;BMP180;51893;59.754;10.110;2023-05-10T13:46:51;101644.80;;;21.20
65290;BMP180;51893;59.754;10.110;2023-05-10T13:49:19;101636.40;;;21.20
65290;BMP180;51893;59.754;10.110;2023-05-10T13:51:48;101644.60;;;21.10
65290;BMP180;51893;59.754;10.110;2023-05-10T13:54:19;101641.60;;;21.10
65290;BMP180;51893;59.754;10.110;2023-05-10T13:56:48;101639.60;;;21.20
65290;BMP180;51893;59.754;10.110;2023-05-10T13:59:18;101651.00;;;21.10
65290;BMP180;51893;59.754;10.110;2023-05-10T14:01:48;101641.80;;;21.00
65290;BMP180;51893;59.754;10.110;2023-05-10T14:04:17;101645.80;;;21.10
65290;BMP180;51893;59.754;10.110;2023-05-10T14:06:45;101638.00;;;21.00
65290;BMP180;51893;59.754;10.110;2023-05-10T14:09:14;101643.60;;;20.82
65290;BMP180;51893;59.754;10.110;2023-05-10T14:11:42;101627.40;;;20.80
65290;BMP180;51893;59.754;10.110;2023-05-10T14:14:12;101628.00;;;20.90
65290;BMP180;51893;59.754;10.110;2023-05-10T14:16:43;101623.60;;;20.90
65290;BMP180;51893;59.754;10.110;2023-05-10T14:19:12;101611.40;;;21.00
65290;BMP180;51893;59.754;10.110;2023-05-10T14:21:42;101615.60;;;21.00
65290;BMP180;51893;59.754;10.110;2023-05-10T14:24:12;101623.00;;;21.10
65290;BMP180;51893;59.754;10.110;2023-05-10T14:26:40;101618.20;;;21.30
65290;BMP180;51893;59.754;10.110;2023-05-10T14:29:09;101618.80;;;21.54
65290;BMP180;51893;59.754;10.110;2023-05-10T14:31:40;101611.00;;;21.70
65290;BMP180;51893;59.754;10.110;2023-05-10T14:34:08;101602.60;;;22.00
65290;BMP180;51893;59.754;10.110;2023-05-10T14:36:36;101610.60;;;22.10
65290;BMP180;51893;59.754;10.110;2023-05-10T14:39:04;101605.00;;;22.30